createdAt,value
2018-11-29T00:00:52.842Z,100853.39
2018-11-29T00:12:58.140Z,100863.05
2018-11-29T00:15:28.166Z,100850.71
2018-11-29T00:17:58.129Z,100851.31
2018-11-29T00:20:53.615Z,100837.89
2018-11-29T00:23:23.795Z,100846.58
2018-11-29T00:29:23.213Z,100866.03
2018-11-29T00:31:53.270Z,100856.52
2018-11-29T00:34:23.291Z,100856.39
2018-11-29T00:53:49.419Z,100842.02
2018-11-29T00:56:47.303Z,100842.47
2018-11-29T00:59:17.426Z,100837.78
2018-11-29T01:05:54.719Z,100841.02
2018-11-29T01:08:24.635Z,100840.17
2018-11-29T01:23:26.463Z,100852.22
2018-11-29T01:25:56.536Z,100853.45
2018-11-29T01:28:26.604Z,100840.91
2018-11-29T01:30:57.157Z,100852.77
2018-11-29T01:33:27.150Z,100862.21
2018-11-29T01:35:57.111Z,100855.48
2018-11-29T01:38:27.069Z,100846.74
2018-11-29T01:40:57.011Z,100851.37
2018-11-29T01:52:37.725Z,100854.79
2018-11-29T01:55:09.938Z,100843.30
2018-11-29T01:58:05.648Z,100846.69
2018-11-29T02:04:50.570Z,100837.23
2018-11-29T02:07:20.477Z,100833.30
2018-11-29T02:10:14.521Z,100836.52
2018-11-29T02:12:44.528Z,100837.37
2018-11-29T02:15:35.141Z,100838.45
2018-11-29T02:18:05.174Z,100825.77
2018-11-29T02:20:35.461Z,100829.55
2018-11-29T02:29:37.476Z,100815.09
2018-11-29T02:32:07.665Z,100820.14
2018-11-29T02:34:37.783Z,100827.70
2018-11-29T02:40:18.666Z,100828.30
2018-11-29T02:46:07.661Z,100818.75
2018-11-29T02:54:49.781Z,100817.34
2018-11-29T02:57:19.936Z,100817.80
2018-11-29T02:59:50.753Z,100820.78
2018-11-29T03:02:20.844Z,100818.24
2018-11-29T03:04:50.867Z,100815.81
2018-11-29T03:10:30.475Z,100796.19
2018-11-29T03:13:00.649Z,100815.30
2018-11-29T03:15:30.573Z,100811.86
2018-11-29T03:18:19.055Z,100813.84
2018-11-29T03:20:48.992Z,100807.83
2018-11-29T03:26:28.221Z,100811.21
2018-11-29T03:28:58.271Z,100803.05
2018-11-29T03:31:28.202Z,100800.08
2018-11-29T03:33:58.138Z,100796.91
2018-11-29T03:36:28.024Z,100786.22
2018-11-29T03:48:29.975Z,100805.54
2018-11-29T03:54:20.077Z,100812.73
2018-11-29T03:56:54.563Z,100805.47
2018-11-29T03:59:24.990Z,100814.30
2018-11-29T04:01:55.397Z,100808.91
2018-11-29T04:10:36.404Z,100797.26
2018-11-29T04:13:06.929Z,100789.03
2018-11-29T04:15:37.120Z,100785.26
2018-11-29T04:18:07.640Z,100790.88
2018-11-29T04:27:11.831Z,100778.63
2018-11-29T04:32:51.260Z,100770.45
2018-11-29T04:35:21.204Z,100784.27
2018-11-29T04:37:51.207Z,100792.36
2018-11-29T04:40:37.473Z,100778.12
2018-11-29T04:43:08.528Z,100788.03
2018-11-29T04:45:54.809Z,100788.08
2018-11-29T04:48:24.742Z,100787.28
2018-11-29T04:50:57.702Z,100774.97
2018-11-29T04:53:27.755Z,100779.81
2018-11-29T04:55:57.700Z,100773.34
2018-11-29T04:58:27.927Z,100760.50
2018-11-29T05:04:08.671Z,100763.53
2018-11-29T05:06:38.865Z,100775.13
2018-11-29T05:09:11.266Z,100771.63
2018-11-29T05:11:41.590Z,100754.02
2018-11-29T05:14:12.248Z,100759.59
2018-11-29T05:17:05.988Z,100749.17
2018-11-29T05:19:36.044Z,100744.44
2018-11-29T05:22:18.280Z,100746.32
2018-11-29T05:24:48.200Z,100732.81
2018-11-29T05:27:18.195Z,100732.79
2018-11-29T05:32:58.307Z,100744.86
2018-11-29T05:35:28.297Z,100741.41
2018-11-29T05:38:26.167Z,100751.20
2018-11-29T05:40:56.628Z,100755.83
2018-11-29T05:43:26.739Z,100765.39
2018-11-29T05:45:56.779Z,100761.12
2018-11-29T05:48:26.729Z,100756.84
2018-11-29T05:50:56.841Z,100759.24
2018-11-29T05:53:26.786Z,100754.25
2018-11-29T05:55:56.791Z,100761.55
2018-11-29T05:58:26.883Z,100749.34
2018-11-29T06:00:57.270Z,100752.32
2018-11-29T06:03:27.193Z,100750.45
2018-11-29T06:06:11.561Z,100745.74
2018-11-29T06:08:49.240Z,100738.47
2018-11-29T06:11:25.211Z,100742.11
2018-11-29T06:13:57.751Z,100753.61
2018-11-29T06:16:28.534Z,100748.88
2018-11-29T06:18:58.586Z,100756.83
2018-11-29T06:21:28.549Z,100757.84
2018-11-29T06:23:58.564Z,100757.39
2018-11-29T06:26:28.574Z,100754.67
2018-11-29T06:29:10.308Z,100749.11
2018-11-29T06:31:40.279Z,100743.30
2018-11-29T06:34:10.185Z,100744.15
2018-11-29T06:36:40.287Z,100746.02
2018-11-29T06:39:10.721Z,100741.78
2018-11-29T06:41:40.966Z,100731.03
2018-11-29T06:44:10.919Z,100740.11
2018-11-29T06:46:45.100Z,100743.88
2018-11-29T06:49:15.142Z,100740.11
2018-11-29T06:52:04.658Z,100738.63
2018-11-29T06:54:34.705Z,100719.54
2018-11-29T06:57:04.750Z,100730.17
2018-11-29T06:59:34.706Z,100727.69
2018-11-29T07:02:07.984Z,100720.31
2018-11-29T07:04:46.298Z,100710.12
2018-11-29T07:07:16.317Z,100720.84
2018-11-29T07:09:46.425Z,100717.50
2018-11-29T07:12:40.987Z,100710.53
2018-11-29T07:15:13.405Z,100705.92
2018-11-29T07:17:44.151Z,100702.43
2018-11-29T07:20:24.424Z,100698.08
2018-11-29T07:22:54.393Z,100695.38
2018-11-29T07:25:24.478Z,100691.67
2018-11-29T07:27:54.479Z,100694.19
2018-11-29T07:30:24.610Z,100690.75
2018-11-29T07:32:54.602Z,100682.09
2018-11-29T07:35:25.373Z,100681.53
2018-11-29T07:37:57.204Z,100685.91
2018-11-29T07:40:27.192Z,100692.45
2018-11-29T07:42:57.287Z,100692.50
2018-11-29T07:45:27.209Z,100694.14
2018-11-29T07:47:57.334Z,100684.36
2018-11-29T07:50:27.358Z,100683.54
2018-11-29T07:52:57.391Z,100679.36
2018-11-29T07:55:36.303Z,100672.59
2018-11-29T07:58:08.029Z,100678.07
2018-11-29T08:00:43.184Z,100684.36
2018-11-29T08:03:13.327Z,100680.87
2018-11-29T08:05:44.434Z,100688.57
2018-11-29T08:08:15.081Z,100672.78
2018-11-29T08:10:45.162Z,100687.75
2018-11-29T08:13:21.221Z,100679.63
2018-11-29T08:15:51.407Z,100682.96
2018-11-29T08:18:45.567Z,100686.05
2018-11-29T08:21:38.105Z,100683.86
2018-11-29T08:24:08.159Z,100680.82
2018-11-29T08:26:38.448Z,100675.75
2018-11-29T08:29:08.636Z,100674.02
2018-11-29T08:32:05.108Z,100678.20
2018-11-29T08:34:46.719Z,100681.41
2018-11-29T08:37:38.290Z,100672.65
2018-11-29T08:40:38.879Z,100657.62
2018-11-29T08:43:09.187Z,100645.75
2018-11-29T08:45:39.173Z,100654.37
2018-11-29T08:48:09.312Z,100638.18
2018-11-29T08:53:44.472Z,100636.88
2018-11-29T08:56:20.788Z,100645.64
2018-11-29T08:59:15.634Z,100630.72
2018-11-29T09:01:45.661Z,100642.12
2018-11-29T09:04:15.771Z,100634.59
2018-11-29T09:06:45.780Z,100635.76
2018-11-29T09:09:25.338Z,100637.36
2018-11-29T09:12:08.450Z,100640.63
2018-11-29T09:14:38.723Z,100651.96
2018-11-29T09:17:10.286Z,100645.98
2018-11-29T09:19:38.946Z,100647.42
2018-11-29T09:22:08.944Z,100648.97
2018-11-29T09:24:39.042Z,100644.49
2018-11-29T09:27:21.379Z,100651.48
2018-11-29T09:33:16.853Z,100664.44
2018-11-29T09:38:56.362Z,100665.39
2018-11-29T09:41:26.450Z,100670.83
2018-11-29T09:43:56.439Z,100647.94
2018-11-29T09:46:54.385Z,100651.22
2018-11-29T09:49:24.615Z,100662.52
2018-11-29T09:54:55.254Z,100657.33
2018-11-29T09:57:25.401Z,100651.41
2018-11-29T09:59:55.688Z,100657.17
2018-11-29T10:02:27.863Z,100651.50
2018-11-29T10:05:00.894Z,100647.16
2018-11-29T10:07:31.249Z,100641.19
2018-11-29T10:10:01.421Z,100638.84
2018-11-29T10:12:31.511Z,100629.52
2018-11-29T10:15:01.505Z,100629.77
2018-11-29T10:17:31.448Z,100630.94
2018-11-29T10:20:01.472Z,100628.64
2018-11-29T10:22:31.558Z,100628.13
2018-11-29T10:25:09.850Z,100625.92
2018-11-29T10:28:05.641Z,100611.41
2018-11-29T10:33:34.241Z,100606.34
2018-11-29T10:36:04.586Z,100607.73
2018-11-29T10:38:48.821Z,100597.17
2018-11-29T10:41:18.926Z,100593.00
2018-11-29T10:43:48.993Z,100584.77
2018-11-29T10:46:19.077Z,100588.42
2018-11-29T10:52:00.040Z,100557.75
2018-11-29T10:54:48.232Z,100550.39
2018-11-29T10:57:18.607Z,100531.64
2018-11-29T10:59:48.595Z,100546.42
2018-11-29T11:05:38.278Z,100564.73
2018-11-29T11:14:38.299Z,100534.69
2018-11-29T11:29:22.426Z,100490.41
2018-11-29T11:31:52.572Z,100500.72
2018-11-29T11:34:22.680Z,100503.27
2018-11-29T11:36:52.795Z,100504.17
2018-11-29T11:42:33.562Z,100511.56
2018-11-29T11:45:03.585Z,100521.56
2018-11-29T11:47:33.609Z,100537.98
2018-11-29T11:50:03.743Z,100546.45
2018-11-29T11:52:33.809Z,100553.59
2018-11-29T11:55:10.457Z,100545.86
2018-11-29T11:58:10.278Z,100545.97
2018-11-29T12:01:05.530Z,100532.99
2018-11-29T12:03:35.846Z,100515.72
2018-11-29T12:06:07.052Z,100504.66
2018-11-29T12:11:46.881Z,100496.09
2018-11-29T12:14:17.509Z,100492.07
2018-11-29T12:16:50.905Z,100484.42
2018-11-29T12:19:25.834Z,100487.50
2018-11-29T12:21:57.164Z,100491.59
2018-11-29T12:24:27.373Z,100478.55
2018-11-29T12:26:57.404Z,100460.16
2018-11-29T12:29:27.560Z,100446.45
2018-11-29T12:32:25.964Z,100422.31
2018-11-29T12:38:10.027Z,100333.41
2018-11-29T12:44:15.129Z,100308.23
2018-11-29T12:46:45.189Z,100289.30
2018-11-29T12:52:24.911Z,100259.28
2018-11-29T12:54:54.857Z,100186.34
2018-11-29T12:57:24.860Z,100225.73
2018-11-29T12:59:58.434Z,100225.77
2018-11-29T13:02:28.536Z,100220.99
2018-11-29T13:04:58.700Z,100227.48
2018-11-29T13:07:28.840Z,100231.05
2018-11-29T13:10:21.444Z,100248.44
2018-11-29T13:12:56.160Z,100246.36
2018-11-29T13:15:30.848Z,100238.45
2018-11-29T13:18:09.764Z,100283.61
2018-11-29T13:20:39.881Z,100307.70
2018-11-29T13:23:10.008Z,100313.41
2018-11-29T13:26:05.651Z,100365.63
2018-11-29T13:34:21.266Z,100373.46
2018-11-29T13:36:51.429Z,100385.50
2018-11-29T13:39:21.471Z,100363.95
2018-11-29T13:41:51.479Z,100353.69
2018-11-29T13:44:24.468Z,100312.54
2018-11-29T13:46:54.611Z,100302.13
2018-11-29T13:49:24.601Z,100309.56
2018-11-29T13:52:06.285Z,100335.34
2018-11-29T13:54:36.392Z,100330.67
2018-11-29T13:57:06.734Z,100325.27
2018-11-29T13:59:39.682Z,100300.16
2018-11-29T14:02:09.791Z,100324.02
2018-11-29T14:07:52.090Z,100302.02
2018-11-29T14:10:23.518Z,100273.02
2018-11-29T14:16:18.378Z,100244.80
2018-11-29T14:18:48.383Z,100286.41
2018-11-29T14:21:18.567Z,100258.31
2018-11-29T14:24:04.638Z,100218.61
2018-11-29T14:29:37.278Z,100209.00
2018-11-29T14:32:12.822Z,100222.73
2018-11-29T14:34:42.941Z,100168.45
2018-11-29T14:37:23.796Z,100175.64
2018-11-29T14:39:54.295Z,100168.95
2018-11-29T14:42:46.763Z,100207.13
2018-11-29T14:45:25.803Z,100189.80
2018-11-29T14:47:56.545Z,100183.58
2018-11-29T14:53:22.320Z,100177.01
2018-11-29T14:55:53.695Z,100174.07
2018-11-29T14:58:24.113Z,100174.22
2018-11-29T15:00:54.336Z,100170.25
2018-11-29T15:03:25.807Z,100178.77
2018-11-29T15:05:56.631Z,100185.11
2018-11-29T15:08:26.685Z,100172.66
2018-11-29T15:10:58.198Z,100168.57
2018-11-29T15:13:31.588Z,100170.90
2018-11-29T15:16:08.905Z,100162.65
2018-11-29T15:18:38.946Z,100172.00
2018-11-29T15:21:12.583Z,100194.19
2018-11-29T15:23:49.943Z,100195.30
2018-11-29T15:29:21.016Z,100206.78
2018-11-29T15:32:10.817Z,100208.73
2018-11-29T15:35:08.008Z,100205.22
2018-11-29T15:37:38.635Z,100199.38
2018-11-29T15:40:11.645Z,100189.80
2018-11-29T15:42:43.958Z,100186.94
2018-11-29T15:45:18.894Z,100167.92
2018-11-29T15:48:42.120Z,100161.74
2018-11-29T15:51:12.629Z,100153.27
2018-11-29T15:53:43.282Z,100159.41
2018-11-29T15:56:13.446Z,100148.64
2018-11-29T15:58:43.480Z,100171.09
2018-11-29T16:04:26.593Z,100195.64
2018-11-29T16:07:06.612Z,100177.84
2018-11-29T16:09:36.804Z,100178.11
2018-11-29T16:12:08.362Z,100165.14
2018-11-29T16:14:38.458Z,100173.42
2018-11-29T16:17:48.910Z,100178.23
2018-11-29T16:20:28.477Z,100186.36
2018-11-29T16:23:09.958Z,100191.75
2018-11-29T16:28:41.851Z,100206.75
2018-11-29T16:31:36.562Z,100209.52
2018-11-29T16:34:13.489Z,100215.11
2018-11-29T16:37:07.054Z,100212.50
2018-11-29T16:39:37.328Z,100208.92
2018-11-29T16:42:08.279Z,100209.77
2018-11-29T16:44:38.953Z,100208.08
2018-11-29T16:47:09.862Z,100204.45
2018-11-29T16:49:42.140Z,100185.78
2018-11-29T16:52:17.593Z,100189.91
2018-11-29T16:54:47.813Z,100186.02
2018-11-29T16:57:19.449Z,100190.18
2018-11-29T16:59:51.005Z,100202.31
2018-11-29T17:02:26.402Z,100190.56
2018-11-29T17:04:56.483Z,100194.45
2018-11-29T17:07:28.912Z,100218.66
2018-11-29T17:13:13.381Z,100225.56
2018-11-29T17:15:45.616Z,100225.34
2018-11-29T17:18:37.366Z,100228.84
2018-11-29T17:21:19.195Z,100229.76
2018-11-29T17:23:52.413Z,100214.31
2018-11-29T17:26:24.218Z,100222.36
2018-11-29T17:29:16.427Z,100220.60
2018-11-29T17:31:46.552Z,100201.48
2018-11-29T17:34:17.137Z,100215.09
2018-11-29T17:36:48.105Z,100225.55
2018-11-29T17:48:27.246Z,100214.33
2018-11-29T17:50:57.784Z,100210.44
2018-11-29T17:53:27.885Z,100213.03
2018-11-29T17:56:25.896Z,100208.23
2018-11-29T17:58:56.291Z,100217.50
2018-11-29T18:04:38.693Z,100224.48
2018-11-29T18:07:09.952Z,100216.31
2018-11-29T18:09:40.064Z,100222.95
2018-11-29T18:12:11.046Z,100232.73
2018-11-29T18:14:48.265Z,100223.83
2018-11-29T18:17:18.831Z,100229.02
2018-11-29T18:19:48.831Z,100243.36
2018-11-29T18:22:18.876Z,100244.55
2018-11-29T18:24:48.941Z,100258.75
2018-11-29T18:27:19.995Z,100268.09
2018-11-29T18:32:59.646Z,100274.19
2018-11-29T18:35:29.525Z,100281.63
2018-11-29T18:37:59.385Z,100278.11
2018-11-29T18:40:29.299Z,100284.14
2018-11-29T18:43:00.442Z,100270.47
2018-11-29T18:45:54.315Z,100288.64
2018-11-29T18:48:27.204Z,100285.45
2018-11-29T18:59:58.696Z,100264.76
2018-11-29T19:02:30.631Z,100257.61
2018-11-29T19:05:00.906Z,100258.41
2018-11-29T19:07:39.939Z,100255.29
2018-11-29T19:10:23.470Z,100266.97
2018-11-29T19:13:09.019Z,100253.61
2018-11-29T19:15:39.045Z,100259.56
2018-11-29T19:18:39.351Z,100240.49
2018-11-29T19:24:40.164Z,100239.92
2018-11-29T20:02:50.675Z,100235.66
2018-11-29T20:05:20.894Z,100228.34
2018-11-29T20:07:51.093Z,100227.55
2018-11-29T20:10:25.975Z,100231.70
2018-11-29T20:13:01.956Z,100233.54
2018-11-29T20:15:40.522Z,100235.48
2018-11-29T20:18:12.540Z,100227.80
2018-11-29T20:20:42.942Z,100238.27
2018-11-29T20:23:14.092Z,100242.61
2018-11-29T20:29:15.754Z,100242.92
2018-11-29T20:31:45.692Z,100250.25
2018-11-29T20:34:15.899Z,100259.16
2018-11-29T20:36:45.822Z,100261.16
2018-11-29T20:39:18.040Z,100258.95
2018-11-29T20:41:48.922Z,100249.80
2018-11-29T20:44:18.927Z,100259.41
2018-11-29T20:49:52.134Z,100253.77
2018-11-29T20:52:30.214Z,100255.20
2018-11-29T20:55:00.725Z,100240.93
2018-11-29T20:57:30.767Z,100248.56
2018-11-29T21:00:00.845Z,100249.02
2018-11-29T21:09:06.083Z,100242.27
2018-11-29T21:11:37.271Z,100245.59
2018-11-29T21:14:07.756Z,100248.72
2018-11-29T21:19:44.817Z,100249.94
2018-11-29T21:28:39.841Z,100237.92
2018-11-29T21:31:13.324Z,100234.44
2018-11-29T21:37:00.758Z,100243.06
2018-11-29T21:39:30.865Z,100252.08
2018-11-29T21:42:02.122Z,100258.11
2018-11-29T21:44:32.272Z,100278.95
2018-11-29T21:47:06.464Z,100269.67
2018-11-29T21:49:36.771Z,100265.33
2018-11-29T21:52:06.823Z,100282.45
2018-11-29T21:54:37.093Z,100272.73
2018-11-29T21:57:09.715Z,100291.28
2018-11-29T22:00:06.050Z,100284.41
2018-11-29T22:02:41.714Z,100274.14
2018-11-29T22:05:09.615Z,100277.50
2018-11-29T22:07:39.964Z,100287.11
2018-11-29T22:10:10.051Z,100274.52
2018-11-29T22:12:40.145Z,100278.95
2018-11-29T22:15:12.337Z,100272.45
2018-11-29T22:18:22.165Z,100265.58
2018-11-29T22:21:01.514Z,100267.27
2018-11-29T22:26:51.712Z,100273.37
2018-11-29T22:29:21.836Z,100277.30
2018-11-29T22:31:53.299Z,100275.51
2018-11-29T22:34:23.446Z,100267.65
2018-11-29T22:36:53.502Z,100266.42
2018-11-29T22:39:23.621Z,100261.73
2018-11-29T22:41:53.772Z,100256.08
2018-11-29T22:44:23.813Z,100264.03
2018-11-29T22:46:54.005Z,100271.16
2018-11-29T22:49:26.030Z,100261.55
2018-11-29T22:51:56.309Z,100265.83
2018-11-29T22:54:26.341Z,100263.75
2018-11-29T22:57:02.689Z,100256.36
2018-11-29T22:59:32.716Z,100255.90
2018-11-29T23:02:02.961Z,100247.41
2018-11-29T23:04:46.419Z,100258.45
2018-11-29T23:07:16.603Z,100254.59
2018-11-29T23:09:46.678Z,100260.45
2018-11-29T23:12:21.891Z,100258.23
2018-11-29T23:14:51.906Z,100262.55
2018-11-29T23:17:22.026Z,100253.01
2018-11-29T23:19:59.385Z,100253.89
2018-11-29T23:22:29.553Z,100245.91
2018-11-29T23:25:00.605Z,100250.80
2018-11-29T23:33:51.937Z,100237.29
2018-11-29T23:36:22.017Z,100234.77
2018-11-29T23:38:52.033Z,100235.49
2018-11-29T23:41:21.973Z,100244.69
2018-11-29T23:44:18.527Z,100239.88
2018-11-29T23:47:06.375Z,100239.84
2018-11-29T23:49:36.448Z,100227.70
2018-11-29T23:55:28.389Z,100236.33
2018-11-29T23:57:58.612Z,100243.02
